Time;durP1;ratioP1;P1;durP2;ratioP2;P2;SDS_P1;SDS_P2;PMS_P1;PMS_P2;Temp;Humidity;BMP_temperature;BMP_pressure;BME280_temperature;BME280_humidity;BME280_pressure;Samples;Min_cycle;Max_cycle;Signal;HPM_P1;HPM_P2
2022/06/14 07:11:08;;;;;;;5.15;4.80;;;31.50;99.90;;;;;;6218528;22;20031;-92
2022/06/14 07:13:56;;;;;;;8.27;5.05;;;32.20;99.90;;;;;;6254347;22;20016;-89
2022/06/14 07:16:32;;;;;;;5.65;5.20;;;32.10;99.90;;;;;;6226668;22;20000;-90
2022/06/14 07:19:27;;;;;;;7.00;5.40;;;32.40;99.90;;;;;;6221517;23;20012;-89
2022/06/14 07:22:03;;;;;;;5.38;4.97;;;31.80;99.90;;;;;;6196819;23;20111;-90
2022/06/14 07:24:36;;;;;;;9.00;5.47;;;31.60;99.90;;;;;;6196536;23;20078;-91
2022/06/14 07:27:13;;;;;;;6.53;5.78;;;31.80;99.90;;;;;;6210132;23;20046;-89
2022/06/14 07:30:19;;;;;;;6.13;5.50;;;31.90;99.90;;;;;;6199720;23;20088;-91
2022/06/14 07:32:51;;;;;;;9.02;5.45;;;32.10;99.90;;;;;;6196604;23;20062;-88
2022/06/14 07:35:42;;;;;;;6.40;4.63;;;31.70;99.90;;;;;;6196800;23;20038;-89
2022/06/14 07:38:16;;;;;;;6.20;5.00;;;30.90;99.90;;;;;;6195360;23;20008;-89
2022/06/14 07:41:06;;;;;;;;;;;30.80;99.90;;;;;;6196881;23;20012;-89
2022/06/14 07:43:50;;;;;;;6.60;5.30;;;30.60;99.90;;;;;;6129306;23;19903;-91
2022/06/14 07:46:37;;;;;;;8.07;5.18;;;31.00;99.90;;;;;;6196041;23;20012;-89
2022/06/14 07:49:55;;;;;;;5.85;4.80;;;31.00;99.90;;;;;;6196101;23;20087;-88
2022/06/14 07:52:43;;;;;;;6.07;4.93;;;30.70;99.90;;;;;;6072923;23;20015;-92
2022/06/14 07:55:32;;;;;;;5.50;4.70;;;31.20;99.90;;;;;;6048798;23;20013;-89
2022/06/14 07:58:06;;;;;;;7.05;5.03;;;31.20;99.90;;;;;;6176437;23;20457;-89
2022/06/14 08:03:32;;;;;;;6.97;6.25;;;31.50;99.90;;;;;;6220967;23;20008;-90
2022/06/14 08:06:04;;;;;;;5.88;5.38;;;31.30;99.90;;;;;;6195886;23;20422;-88
2022/06/14 08:08:35;;;;;;;7.35;5.28;;;31.40;99.90;;;;;;6195697;23;20023;-89
2022/06/14 08:11:07;;;;;;;7.38;5.47;;;31.30;99.90;;;;;;6190741;23;20019;-88
2022/06/14 08:13:44;;;;;;;6.38;5.03;;;31.40;99.90;;;;;;6190911;23;20016;-89
2022/06/14 08:16:12;;;;;;;5.72;5.20;;;31.40;99.90;;;;;;6190782;23;20016;-88
2022/06/14 08:19:16;;;;;;;4.60;4.20;;;31.20;99.90;;;;;;6190836;23;20015;-90
2022/06/14 08:21:47;;;;;;;5.20;4.70;;;30.80;99.90;;;;;;6192025;23;20423;-92
2022/06/14 08:24:24;;;;;;;5.70;4.63;;;30.90;99.90;;;;;;6192544;23;20051;-91
2022/06/14 08:27:21;;;;;;;6.82;4.53;;;31.00;99.90;;;;;;6192584;23;20070;-92
2022/06/14 08:29:59;;;;;;;4.97;4.22;;;31.00;99.90;;;;;;6185590;23;20327;-90
2022/06/14 08:32:37;;;;;;;6.22;4.78;;;31.20;99.90;;;;;;6190577;23;20017;-91
2022/06/14 08:35:37;;;;;;;5.82;4.55;;;31.00;99.90;;;;;;6190691;23;20078;-90
2022/06/14 08:38:19;;;;;;;6.38;4.60;;;30.90;99.90;;;;;;6190470;23;20015;-91
2022/06/14 08:41:11;;;;;;;5.88;5.30;;;31.60;99.90;;;;;;6190922;23;20096;-91
2022/06/14 08:43:46;;;;;;;8.27;5.40;;;31.80;99.90;;;;;;6190763;23;20009;-91
2022/06/14 08:46:51;;;;;;;5.38;4.60;;;31.70;99.90;;;;;;6190781;23;20119;-90
2022/06/14 08:49:54;;;;;;;8.10;5.20;;;31.10;99.90;;;;;;6190486;23;20092;-92
2022/06/14 08:53:11;;;;;;;6.65;4.93;;;31.50;99.90;;;;;;6190393;23;20073;-93
2022/06/14 08:55:56;;;;;;;6.78;4.85;;;31.10;99.90;;;;;;6129475;23;20015;-90
2022/06/14 08:58:32;;;;;;;7.50;5.32;;;30.90;99.90;;;;;;6190606;23;20011;-92
2022/06/14 09:01:26;;;;;;;5.05;4.65;;;30.70;99.90;;;;;;6191916;23;20016;-91
2022/06/14 09:04:33;;;;;;;6.82;4.85;;;31.00;99.90;;;;;;6190567;23;20324;-90
2022/06/14 09:07:35;;;;;;;11.32;5.13;;;30.90;99.90;;;;;;6181602;23;20108;-91
2022/06/14 09:10:14;;;;;;;7.43;5.80;;;30.80;99.90;;;;;;6192321;23;20012;-94
2022/06/14 09:13:02;;;;;;;10.40;5.25;;;31.50;99.90;;;;;;6197592;23;20020;-91
2022/06/14 09:16:03;;;;;;;9.60;6.03;;;31.00;99.90;;;;;;6216602;23;20030;-90
2022/06/14 09:18:52;;;;;;;12.48;4.75;;;30.70;99.90;;;;;;6200412;23;20103;-91
2022/06/14 09:21:51;;;;;;;8.57;5.25;;;30.40;99.90;;;;;;6222533;23;20012;-91
2022/06/14 09:24:27;;;;;;;7.40;4.68;;;30.40;99.90;;;;;;6197771;23;20004;-89
2022/06/14 09:27:43;;;;;;;13.10;4.90;;;30.50;99.90;;;;;;6196905;23;20020;-92
2022/06/14 09:30:40;;;;;;;6.60;5.88;;;30.60;99.90;;;;;;6074684;23;20010;-90
2022/06/14 09:33:26;;;;;;;8.38;4.57;;;30.90;99.90;;;;;;6050442;23;20007;-91
2022/06/14 09:36:10;;;;;;;5.38;4.63;;;30.30;99.90;;;;;;6050185;23;20097;-89
2022/06/14 09:39:15;;;;;;;7.32;5.00;;;30.00;99.90;;;;;;6050486;23;20496;-92
2022/06/14 09:42:09;;;;;;;7.95;5.32;;;30.20;99.90;;;;;;6050055;23;20049;-88
2022/06/14 09:44:47;;;;;;;6.43;5.23;;;30.10;99.90;;;;;;6049927;23;20433;-90
2022/06/14 09:47:50;;;;;;;6.55;4.88;;;30.30;99.90;;;;;;6049785;23;20018;-92
2022/06/14 09:50:53;;;;;;;8.05;4.88;;;29.90;99.90;;;;;;6050218;23;20014;-93
2022/06/14 09:53:38;;;;;;;6.60;4.75;;;29.60;99.90;;;;;;6073692;23;20116;-91
2022/06/14 09:56:27;;;;;;;7.13;4.97;;;29.30;99.90;;;;;;6050008;23;20097;-90
2022/06/14 09:59:35;;;;;;;9.75;5.32;;;29.00;99.90;;;;;;6049534;23;20341;-92
2022/06/14 10:02:35;;;;;;;7.13;5.18;;;28.80;99.90;;;;;;6049010;23;20010;-92
2022/06/14 10:05:38;;;;;;;4.60;4.10;;;28.70;99.90;;;;;;6050250;23;20037;-92
2022/06/14 10:08:29;;;;;;;6.47;4.70;;;28.70;99.90;;;;;;6197207;23;20016;-91
2022/06/14 10:11:10;;;;;;;5.07;4.57;;;28.80;99.90;;;;;;6196778;23;20078;-91
2022/06/14 10:14:01;;;;;;;6.18;4.70;;;29.10;99.90;;;;;;6222050;23;20062;-92
2022/06/14 10:17:02;;;;;;;9.38;5.03;;;29.40;99.90;;;;;;6196584;23;20036;-92
2022/06/14 10:19:46;;;;;;;6.75;4.97;;;29.30;99.90;;;;;;6196094;23;20008;-90
2022/06/14 10:22:37;;;;;;;7.60;4.45;;;29.70;99.90;;;;;;6196682;23;20015;-92
2022/06/14 10:28:11;;;;;;;6.85;4.70;;;29.40;99.90;;;;;;6196651;23;20091;-91
2022/06/14 10:28:38;;;;;;;5.30;4.68;;;28.90;99.90;;;;;;6221480;23;20016;-91
2022/06/14 10:31:25;;;;;;;12.23;6.20;;;29.30;99.90;;;;;;6196326;23;20014;-92
2022/06/14 10:34:12;;;;;;;6.80;5.78;;;29.40;99.90;;;;;;6196637;23;20300;-92
2022/06/14 10:37:15;;;;;;;7.18;5.82;;;29.60;99.90;;;;;;6197281;23;20020;-92
2022/06/14 10:39:58;;;;;;;12.07;6.47;;;29.30;99.90;;;;;;6196380;23;20082;-92
2022/06/14 10:42:38;;;;;;;7.35;5.22;;;29.60;99.90;;;;;;6195876;23;20008;-93
2022/06/14 10:45:30;;;;;;;6.97;4.63;;;29.50;99.90;;;;;;6197002;23;20008;-92
2022/06/14 10:48:15;;;;;;;11.45;5.57;;;29.30;99.90;;;;;;6196181;23;20438;-92
2022/06/14 10:51:00;;;;;;;6.43;4.97;;;29.50;99.90;;;;;;6161363;23;20029;-93
2022/06/14 10:53:47;;;;;;;6.00;4.82;;;29.50;99.90;;;;;;6162332;23;20108;-92
2022/06/14 10:56:39;;;;;;;;;;;;;;;;;;;;;
2022/06/14 10:59:34;;;;;;;6.07;5.05;;;29.40;99.90;;;;;;6160554;23;20009;-91
2022/06/14 11:02:20;;;;;;;5.63;4.55;;;29.30;99.90;;;;;;6135871;23;20044;-92
2022/06/14 11:05:13;;;;;;;6.65;5.05;;;29.20;99.90;;;;;;6136780;23;20099;-92
2022/06/14 11:08:06;;;;;;;6.68;4.60;;;29.20;99.90;;;;;;6107129;23;20017;-92
2022/06/14 11:10:54;;;;;;;7.83;4.83;;;29.40;99.90;;;;;;6144063;23;20100;-92
2022/06/14 11:13:56;;;;;;;7.25;5.30;;;29.70;99.90;;;;;;6137582;23;20020;-90
2022/06/14 11:16:49;;;;;;;6.05;4.95;;;30.00;99.90;;;;;;6136263;23;20013;-90
2022/06/14 11:19:55;;;;;;;7.53;5.27;;;29.80;99.90;;;;;;6136430;23;20009;-90
2022/06/14 11:22:39;;;;;;;6.10;5.50;;;29.90;99.90;;;;;;6176972;23;20012;-92
2022/06/14 11:25:28;;;;;;;7.35;5.25;;;30.20;99.90;;;;;;6191434;23;20012;-91
2022/06/14 11:28:14;;;;;;;6.20;4.68;;;29.90;99.90;;;;;;6191045;23;20050;-93
2022/06/14 11:31:18;;;;;;;6.78;5.30;;;29.80;99.90;;;;;;6192593;23;20009;-92
2022/06/14 11:34:04;;;;;;;7.00;4.65;;;29.70;99.90;;;;;;6190829;23;20004;-93
2022/06/14 11:36:43;;;;;;;5.25;4.75;;;29.80;99.90;;;;;;6190633;23;20389;-92
2022/06/14 11:39:19;;;;;;;4.93;4.53;;;29.70;99.90;;;;;;6191526;23;20091;-91
2022/06/14 11:41:51;;;;;;;6.05;4.30;;;30.10;99.90;;;;;;6191537;23;20013;-91
2022/06/14 11:44:25;;;;;;;5.50;4.90;;;30.20;99.90;;;;;;6191523;23;20066;-92
2022/06/14 11:47:30;;;;;;;6.47;4.43;;;30.40;99.90;;;;;;6191743;23;20016;-93
2022/06/14 11:50:25;;;;;;;5.30;4.90;;;30.30;99.90;;;;;;6191762;23;20431;-93
2022/06/14 11:53:03;;;;;;;5.07;4.65;;;30.30;99.90;;;;;;6191030;23;20004;-92
2022/06/14 11:55:53;;;;;;;7.35;4.85;;;30.40;99.90;;;;;;6190934;23;20032;-91
2022/06/14 11:58:50;;;;;;;5.15;4.65;;;29.90;99.90;;;;;;6220327;23;20043;-91
2022/06/14 12:01:45;;;;;;;6.53;4.50;;;29.50;99.90;;;;;;6195603;23;20561;-90
2022/06/14 12:04:48;;;;;;;5.00;4.60;;;29.50;99.90;;;;;;6195578;23;20072;-91
2022/06/14 12:07:37;;;;;;;5.80;5.18;;;29.80;99.90;;;;;;6194928;23;20551;-90
2022/06/14 12:10:25;;;;;;;7.78;5.63;;;29.70;99.90;;;;;;6195301;23;20094;-93
2022/06/14 12:13:11;;;;;;;5.38;4.82;;;29.70;99.90;;;;;;6194367;23;20020;-93
2022/06/14 12:15:53;;;;;;;4.88;4.47;;;29.70;99.90;;;;;;6195456;23;20005;-94
2022/06/14 12:18:23;;;;;;;9.18;5.30;;;29.90;99.90;;;;;;6195179;23;20008;-90
2022/06/14 12:21:13;;;;;;;6.28;4.90;;;30.00;99.90;;;;;;6195100;23;20066;-92
2022/06/14 12:23:57;;;;;;;5.45;4.95;;;29.70;99.90;;;;;;6195037;23;20389;-92
2022/06/14 12:26:37;;;;;;;6.93;5.10;;;29.90;99.90;;;;;;6194929;23;20004;-91
2022/06/14 12:29:37;;;;;;;6.47;5.28;;;29.90;99.90;;;;;;6195168;23;20021;-90
2022/06/14 12:32:28;;;;;;;6.10;5.50;;;30.00;99.90;;;;;;6194994;23;20405;-90
2022/06/14 12:35:01;;;;;;;7.63;4.60;;;30.00;99.90;;;;;;6191033;23;20017;-93
2022/06/14 12:37:27;;;;;;;5.78;4.90;;;29.60;99.90;;;;;;6190885;23;20008;-91
2022/06/14 12:40:00;;;;;;;4.90;4.35;;;29.40;99.90;;;;;;6190597;23;20009;-92
2022/06/14 12:42:53;;;;;;;6.28;4.75;;;29.50;99.90;;;;;;6190774;23;20036;-90
2022/06/14 12:45:41;;;;;;;5.88;4.60;;;29.40;99.90;;;;;;6190643;23;20091;-90
2022/06/14 12:48:35;;;;;;;7.40;4.68;;;29.60;99.90;;;;;;6190637;23;20016;-90
2022/06/14 12:51:11;;;;;;;6.40;4.45;;;29.70;99.90;;;;;;6190638;23;20012;-89
2022/06/14 12:53:55;;;;;;;5.05;4.25;;;29.50;99.90;;;;;;6190820;23;20005;-92
2022/06/14 12:56:51;;;;;;;5.50;4.72;;;29.60;99.90;;;;;;6191308;23;20028;-90
2022/06/14 12:59:56;;;;;;;5.22;4.75;;;29.60;99.90;;;;;;6191098;23;20015;-92
2022/06/14 13:02:36;;;;;;;7.70;4.60;;;29.80;99.90;;;;;;6211453;23;20004;-92
2022/06/14 13:05:16;;;;;;;6.85;5.20;;;29.80;99.90;;;;;;6192331;23;20047;-92
2022/06/14 13:07:55;;;;;;;5.03;4.63;;;30.10;99.90;;;;;;6198979;23;20024;-93
2022/06/14 13:10:59;;;;;;;7.20;5.30;;;30.40;99.90;;;;;;6190627;23;20008;-91
2022/06/14 13:14:03;;;;;;;7.05;5.40;;;30.00;99.90;;;;;;6190580;23;20016;-91
2022/06/14 13:16:54;;;;;;;4.93;4.43;;;29.90;99.90;;;;;;6190432;23;20074;-92
2022/06/14 13:20:03;;;;;;;6.05;5.05;;;29.90;99.90;;;;;;6165581;23;20311;-93
2022/06/14 13:23:06;;;;;;;11.30;5.28;;;30.20;99.90;;;;;;6019873;23;20015;-90
2022/06/14 13:25:47;;;;;;;5.45;4.90;;;30.10;99.90;;;;;;6019579;23;20023;-91
2022/06/14 13:28:34;;;;;;;5.20;4.70;;;29.80;99.90;;;;;;6043292;23;20424;-92
2022/06/14 13:31:42;;;;;;;5.25;4.75;;;29.90;99.90;;;;;;6019756;23;20003;-92
2022/06/14 19:37:57;;;;;;;10.57;7.70;;;24.90;99.90;;;;;;6130382;23;20018;-93
2022/06/14 19:40:33;;;;;;;9.70;6.50;;;24.90;99.90;;;;;;6156679;23;20089;-93
2022/06/14 19:43:07;;;;;;;7.70;6.93;;;24.80;99.90;;;;;;6107544;23;20092;-92
2022/06/14 19:45:37;;;;;;;9.55;7.15;;;24.80;99.90;;;;;;6112138;23;20439;-91
2022/06/14 19:48:09;;;;;;;10.43;6.97;;;24.70;99.90;;;;;;6136977;23;20075;-92
2022/06/14 19:50:53;;;;;;;7.28;6.55;;;24.70;99.90;;;;;;6136501;23;20457;-92
2022/06/14 19:53:26;;;;;;;9.82;7.05;;;24.70;99.90;;;;;;6136318;23;20375;-92
2022/06/14 19:56:00;;;;;;;7.80;6.95;;;24.60;99.90;;;;;;6160887;23;20005;-92
2022/06/14 19:58:40;;;;;;;;;;;24.60;99.90;;;;;;6161974;23;20036;-91
2022/06/14 20:01:27;;;;;;;7.60;6.72;;;24.50;99.90;;;;;;6188278;23;19911;-93
2022/06/14 20:03:56;;;;;;;13.68;7.32;;;24.50;99.90;;;;;;6140531;23;20012;-92
2022/06/14 20:06:32;;;;;;;10.95;7.03;;;24.40;99.90;;;;;;6137395;23;20005;-92
2022/06/14 20:09:06;;;;;;;8.40;7.38;;;24.40;99.90;;;;;;6147610;23;20024;-92
2022/06/14 20:11:40;;;;;;;7.87;6.73;;;24.40;99.90;;;;;;6148204;23;20032;-92
2022/06/14 20:14:14;;;;;;;9.90;7.47;;;24.40;99.90;;;;;;6166352;23;20339;-92
2022/06/14 20:17:09;;;;;;;8.07;7.03;;;24.40;99.90;;;;;;6161063;23;20016;-92
2022/06/14 20:19:51;;;;;;;8.00;6.43;;;24.40;99.90;;;;;;6136597;23;20009;-92
2022/06/14 20:22:20;;;;;;;10.55;6.60;;;24.40;99.90;;;;;;6137126;23;20009;-92
2022/06/14 20:24:51;;;;;;;7.18;6.47;;;24.40;99.90;;;;;;6137528;23;20013;-93
2022/06/14 20:27:19;;;;;;;7.07;6.38;;;24.40;99.90;;;;;;6131807;23;20017;-92
2022/06/14 20:29:58;;;;;;;7.00;6.30;;;24.40;99.90;;;;;;6155869;23;20080;-93
2022/06/14 20:32:36;;;;;;;7.05;6.30;;;24.40;99.90;;;;;;6150668;23;20013;-92
2022/06/14 20:35:10;;;;;;;8.18;6.45;;;24.40;99.90;;;;;;6138170;23;20497;-93
2022/06/14 20:38:22;;;;;;;7.75;6.30;;;24.40;99.90;;;;;;6139872;23;20064;-92
2022/06/14 20:40:51;;;;;;;8.25;6.22;;;24.30;99.90;;;;;;6165338;23;20435;-92
2022/06/14 20:43:22;;;;;;;7.63;6.43;;;24.30;99.90;;;;;;6164408;23;20016;-92
2022/06/14 20:45:49;;;;;;;6.90;6.20;;;24.20;99.90;;;;;;6185097;23;20015;-90
2022/06/14 20:48:22;;;;;;;7.80;6.90;;;24.20;99.90;;;;;;6185590;23;20004;-91
2022/06/14 20:50:54;;;;;;;9.43;5.88;;;24.20;99.90;;;;;;6177638;23;20009;-92
2022/06/14 20:53:24;;;;;;;7.88;5.85;;;24.20;99.90;;;;;;6198407;23;20009;-92
2022/06/14 20:55:51;;;;;;;7.82;6.05;;;24.20;99.90;;;;;;6167963;23;20005;-93
2022/06/14 20:58:21;;;;;;;6.72;6.00;;;24.10;99.90;;;;;;6161221;23;20514;-92
2022/06/14 21:00:51;;;;;;;7.50;6.38;;;24.10;99.90;;;;;;6185640;23;20013;-92
2022/06/14 21:03:23;;;;;;;9.10;6.00;;;24.20;99.90;;;;;;6164681;23;20025;-93
2022/06/14 21:06:14;;;;;;;7.60;6.07;;;24.20;99.90;;;;;;6209137;22;20020;-92
2022/06/14 21:08:54;;;;;;;7.10;5.72;;;24.20;99.90;;;;;;6204194;23;20016;-92
2022/06/14 21:11:45;;;;;;;6.60;6.00;;;24.20;99.90;;;;;;6211894;23;20027;-92
2022/06/14 21:14:18;;;;;;;13.10;5.97;;;24.20;99.90;;;;;;6212368;23;20019;-92
2022/06/14 21:16:52;;;;;;;;;;;24.10;99.90;;;;;;6202552;23;20004;-91
2022/06/14 21:19:20;;;;;;;7.93;5.82;;;24.00;99.90;;;;;;6202287;23;19904;-92
2022/06/14 21:22:12;;;;;;;7.55;5.85;;;24.00;99.90;;;;;;6213257;23;20576;-93
2022/06/14 21:24:59;;;;;;;6.43;5.47;;;23.90;99.90;;;;;;6216328;23;20008;-93
2022/06/14 21:27:42;;;;;;;7.72;5.43;;;23.90;99.90;;;;;;6149376;23;20029;-93
2022/06/14 21:31:11;;;;;;;9.35;5.80;;;23.80;99.90;;;;;;6120866;22;20035;-92
2022/06/14 21:33:56;;;;;;;;;;;23.70;99.90;;;;;;6244503;22;20022;-92
2022/06/14 21:36:46;;;;;;;6.88;5.70;;;23.70;99.90;;;;;;6223117;22;19920;-94
2022/06/14 21:39:34;;;;;;;10.00;6.20;;;23.70;99.90;;;;;;6153716;23;20027;-92
2022/06/14 22:04:04;;;;;;;6.85;5.40;;;23.60;99.90;;;;;;6281142;22;20032;-91
2022/06/14 22:10:04;;;;;;;8.27;5.50;;;23.60;99.90;;;;;;6250443;22;20032;-92
2022/06/14 22:15:17;;;;;;;9.02;5.43;;;23.60;99.90;;;;;;6292781;22;20023;-93
2022/06/14 22:18:51;;;;;;;;;;;;;;;;;;;;;
2022/06/14 22:27:56;;;;;;;7.93;6.40;;;23.30;99.90;;;;;;6298866;22;20276;-93
2022/06/14 22:30:33;;;;;;;7.85;6.65;;;23.20;99.90;;;;;;6244247;22;20008;-93
2022/06/14 22:33:16;;;;;;;9.65;6.22;;;23.20;99.90;;;;;;6246574;22;20007;-93
2022/06/14 22:35:48;;;;;;;9.50;6.43;;;23.10;99.90;;;;;;6182396;23;20088;-92
2022/06/14 22:38:22;;;;;;;9.02;5.78;;;23.00;99.90;;;;;;6153099;23;20040;-92
2022/06/14 22:40:54;;;;;;;7.80;6.25;;;23.10;99.90;;;;;;6153002;23;20025;-93
2022/06/14 22:43:42;;;;;;;6.95;5.82;;;23.10;99.90;;;;;;6157533;23;20009;-92
2022/06/14 22:46:25;;;;;;;9.27;6.60;;;23.10;99.90;;;;;;6128474;23;20013;-93
2022/06/14 22:48:53;;;;;;;8.25;6.28;;;23.10;99.90;;;;;;6152165;23;20013;-93
2022/06/14 22:51:20;;;;;;;8.70;6.53;;;23.10;99.90;;;;;;6128790;23;20002;-93
2022/06/14 22:53:50;;;;;;;9.18;6.88;;;23.10;99.90;;;;;;6142734;23;20005;-93
2022/06/14 22:56:26;;;;;;;7.82;6.18;;;23.10;99.90;;;;;;6155797;23;20085;-94
2022/06/14 22:59:21;;;;;;;8.85;6.63;;;23.10;99.90;;;;;;6177655;23;20005;-93
2022/06/14 23:01:51;;;;;;;8.82;6.97;;;23.10;99.90;;;;;;6083050;23;20047;-92
2022/06/14 23:04:18;;;;;;;9.63;6.78;;;23.10;99.90;;;;;;6070974;23;20153;-92
2022/06/14 23:06:47;;;;;;;9.82;7.50;;;23.00;99.90;;;;;;6089258;23;20014;-92
2022/06/14 23:09:16;;;;;;;8.95;6.70;;;23.00;99.90;;;;;;6103331;23;20014;-92
2022/06/14 23:11:46;;;;;;;7.32;6.60;;;23.00;99.90;;;;;;6128271;23;20021;-93
2022/06/14 23:14:22;;;;;;;7.97;7.10;;;23.00;99.90;;;;;;6104219;23;20033;-92
2022/06/14 23:16:51;;;;;;;7.55;6.28;;;23.00;99.90;;;;;;6104492;23;20014;-92
2022/06/14 23:19:18;;;;;;;8.57;7.18;;;22.90;99.90;;;;;;6103786;23;20010;-93
2022/06/14 23:21:45;;;;;;;8.88;7.40;;;22.90;99.90;;;;;;6077005;23;20036;-93
2022/06/14 23:24:18;;;;;;;9.23;6.95;;;22.90;99.90;;;;;;6103495;23;20064;-93
2022/06/14 23:26:45;;;;;;;9.43;6.63;;;22.80;99.90;;;;;;6108966;23;20078;-92
2022/06/14 23:29:13;;;;;;;9.57;6.35;;;22.80;99.90;;;;;;6084819;23;20020;-93
2022/06/14 23:31:40;;;;;;;10.52;6.78;;;22.80;99.90;;;;;;6109594;23;20032;-92
2022/06/14 23:34:07;;;;;;;7.88;6.63;;;22.80;99.90;;;;;;6110581;23;20018;-92
2022/06/14 23:36:34;;;;;;;8.55;6.78;;;22.80;99.90;;;;;;6107411;23;20017;-93
2022/06/14 23:39:01;;;;;;;9.82;6.63;;;22.80;99.90;;;;;;6179933;23;20096;-92
2022/06/14 23:41:29;;;;;;;8.27;6.22;;;22.70;99.90;;;;;;6208134;23;20015;-93
2022/06/14 23:44:02;;;;;;;11.35;6.68;;;22.70;99.90;;;;;;6213659;23;20008;-92
2022/06/14 23:46:30;;;;;;;9.18;6.93;;;22.70;99.90;;;;;;6207619;23;20009;-93
2022/06/14 23:48:58;;;;;;;10.70;6.97;;;22.70;99.90;;;;;;6207474;23;20004;-93
2022/06/14 23:51:37;;;;;;;8.60;7.28;;;22.60;99.90;;;;;;6202252;23;20082;-93
2022/06/14 23:54:04;;;;;;;9.15;7.78;;;22.60;99.90;;;;;;6200060;23;20071;-92
2022/06/14 23:56:32;;;;;;;10.48;7.15;;;22.50;99.90;;;;;;6201330;23;20027;-93
2022/06/14 23:58:59;;;;;;;10.07;6.97;;;22.50;99.90;;;;;;6180903;23;20015;-93
